createdAt,value
2018-07-22T00:00:51.116Z,99579.23
2018-07-22T00:03:20.777Z,99577.57
2018-07-22T00:05:50.462Z,99580.55
2018-07-22T00:08:20.172Z,99584.09
2018-07-22T00:10:49.870Z,99581.70
2018-07-22T00:13:19.537Z,99579.41
2018-07-22T00:15:49.260Z,99579.14
2018-07-22T00:18:18.936Z,99576.21
2018-07-22T00:20:48.589Z,99572.03
2018-07-22T00:23:18.296Z,99577.53
2018-07-22T00:25:47.980Z,99577.53
2018-07-22T00:28:17.660Z,99578.55
2018-07-22T00:30:47.409Z,99578.17
2018-07-22T00:33:17.111Z,99581.66
2018-07-22T00:35:46.786Z,99581.32
2018-07-22T00:38:16.498Z,99571.66
2018-07-22T00:40:46.195Z,99578.89
2018-07-22T00:43:15.900Z,99575.45
2018-07-22T00:45:45.636Z,99579.92
2018-07-22T00:48:15.295Z,99585.53
2018-07-22T00:50:45.444Z,99584.09
2018-07-22T00:53:15.135Z,99577.06
2018-07-22T00:55:44.796Z,99581.66
2018-07-22T00:58:14.503Z,99584.17
2018-07-22T01:00:44.214Z,99576.38
2018-07-22T01:03:13.884Z,99574.63
2018-07-22T01:05:43.637Z,99575.05
2018-07-22T01:08:13.333Z,99573.30
2018-07-22T01:10:43.306Z,99580.16
2018-07-22T01:13:12.984Z,99588.00
2018-07-22T01:15:42.672Z,99585.01
2018-07-22T01:18:12.400Z,99590.52
2018-07-22T01:20:42.112Z,99588.75
2018-07-22T01:23:11.862Z,99590.41
2018-07-22T01:25:41.608Z,99594.55
2018-07-22T01:28:11.283Z,99596.92
2018-07-22T01:30:40.953Z,99594.97
2018-07-22T01:33:10.642Z,99594.45
2018-07-22T01:35:40.323Z,99592.29
2018-07-22T01:38:09.981Z,99596.63
2018-07-22T01:40:39.699Z,99594.25
2018-07-22T01:43:09.391Z,99600.55
2018-07-22T01:45:39.099Z,99600.26
2018-07-22T01:48:08.812Z,99603.05
2018-07-22T01:50:38.476Z,99602.28
2018-07-22T01:53:08.216Z,99605.26
2018-07-22T01:55:37.915Z,99607.59
2018-07-22T01:58:07.636Z,99605.51
2018-07-22T02:00:37.384Z,99609.84
2018-07-22T02:03:07.475Z,99603.92
2018-07-22T02:05:37.156Z,99607.30
2018-07-22T02:08:06.812Z,99606.20
2018-07-22T02:10:36.494Z,99606.59
2018-07-22T02:13:06.308Z,99602.31
2018-07-22T02:15:35.982Z,99601.25
2018-07-22T02:18:05.765Z,99597.47
2018-07-22T02:20:35.474Z,99595.21
2018-07-22T02:23:05.162Z,99593.65
2018-07-22T02:25:34.825Z,99599.50
2018-07-22T02:28:04.534Z,99589.40
2018-07-22T02:30:34.252Z,99594.34
2018-07-22T02:33:03.928Z,99591.97
2018-07-22T02:35:33.653Z,99585.92
2018-07-22T02:38:03.363Z,99587.73
2018-07-22T02:40:33.091Z,99592.94
2018-07-22T02:43:02.772Z,99585.38
2018-07-22T02:45:32.473Z,99593.28
2018-07-22T02:48:02.185Z,99586.47
2018-07-22T02:50:31.846Z,99584.86
2018-07-22T02:53:01.622Z,99587.48
2018-07-22T02:55:31.417Z,99590.00
2018-07-22T02:58:01.125Z,99594.83
2018-07-22T03:00:30.814Z,99592.62
2018-07-22T03:03:00.547Z,99587.56
2018-07-22T03:05:30.309Z,99594.06
2018-07-22T03:08:00.008Z,99604.22
2018-07-22T03:10:29.696Z,99604.11
2018-07-22T03:12:59.359Z,99601.66
2018-07-22T03:15:29.225Z,99601.72
2018-07-22T03:17:58.900Z,99602.75
2018-07-22T03:20:28.696Z,99602.26
2018-07-22T03:22:58.657Z,99603.84
2018-07-22T03:25:28.347Z,99611.25
2018-07-22T03:27:58.001Z,99614.12
2018-07-22T03:30:27.808Z,99610.10
2018-07-22T03:32:57.533Z,99618.51
2018-07-22T03:35:27.255Z,99611.44
2018-07-22T03:37:57.003Z,99614.20
2018-07-22T03:40:26.677Z,99615.60
2018-07-22T03:42:56.406Z,99617.70
2018-07-22T03:45:26.072Z,99619.11
2018-07-22T03:47:55.757Z,99617.87
2018-07-22T03:50:28.458Z,99613.87
2018-07-22T03:52:58.122Z,99612.32
2018-07-22T03:55:27.880Z,99613.50
2018-07-22T03:57:57.533Z,99613.55
2018-07-22T04:00:27.331Z,99621.11
2018-07-22T04:02:56.975Z,99625.50
2018-07-22T04:05:26.663Z,99617.89
2018-07-22T04:07:56.318Z,99624.62
2018-07-22T04:10:25.968Z,99616.59
2018-07-22T04:12:55.705Z,99624.38
2018-07-22T04:15:25.488Z,99624.19
2018-07-22T04:17:55.219Z,99620.54
2018-07-22T04:20:24.904Z,99620.42
2018-07-22T04:22:54.557Z,99617.77
2018-07-22T04:25:24.259Z,99621.13
2018-07-22T04:27:53.912Z,99619.76
2018-07-22T04:30:23.618Z,99629.88
2018-07-22T04:32:53.280Z,99624.14
2018-07-22T04:35:22.986Z,99628.10
2018-07-22T04:37:55.672Z,99631.12
2018-07-22T04:40:25.325Z,99623.20
2018-07-22T04:42:55.208Z,99628.52
2018-07-22T04:45:24.899Z,99627.04
2018-07-22T04:47:54.543Z,99633.90
2018-07-22T04:50:24.242Z,99631.80
2018-07-22T04:52:53.897Z,99633.55
2018-07-22T04:55:23.552Z,99632.25
2018-07-22T04:57:53.258Z,99634.59
2018-07-22T05:00:22.912Z,99633.06
2018-07-22T05:02:52.564Z,99638.70
2018-07-22T05:05:22.244Z,99643.44
2018-07-22T05:07:51.899Z,99644.14
2018-07-22T05:10:21.539Z,99651.61
2018-07-22T05:12:51.266Z,99650.35
2018-07-22T05:15:20.915Z,99654.90
2018-07-22T05:17:50.545Z,99657.76
2018-07-22T05:20:20.455Z,99660.83
2018-07-22T05:22:50.105Z,99665.05
2018-07-22T05:25:19.752Z,99665.00
2018-07-22T05:27:49.441Z,99665.43
2018-07-22T05:30:19.078Z,99669.68
2018-07-22T05:32:48.736Z,99667.96
2018-07-22T05:35:18.432Z,99670.50
2018-07-22T05:37:48.135Z,99675.14
2018-07-22T05:40:17.796Z,99678.19
2018-07-22T05:42:47.560Z,99673.78
2018-07-22T05:45:17.292Z,99674.73
2018-07-22T05:47:46.965Z,99678.03
2018-07-22T05:50:16.667Z,99670.14
2018-07-22T05:52:46.356Z,99674.95
2018-07-22T05:55:16.104Z,99674.11
2018-07-22T05:57:45.775Z,99669.75
2018-07-22T06:00:15.532Z,99677.69
2018-07-22T06:02:45.294Z,99675.66
2018-07-22T06:05:18.082Z,99680.34
2018-07-22T06:07:47.855Z,99676.08
2018-07-22T06:10:17.560Z,99678.67
2018-07-22T06:12:47.279Z,99677.07
2018-07-22T06:15:16.962Z,99680.52
2018-07-22T06:17:46.645Z,99687.50
2018-07-22T06:20:16.336Z,99686.23
2018-07-22T06:22:46.030Z,99686.81
2018-07-22T06:25:15.693Z,99686.38
2018-07-22T06:27:48.291Z,99683.41
2018-07-22T06:30:18.024Z,99682.26
2018-07-22T06:32:47.771Z,99687.13
2018-07-22T06:35:17.482Z,99686.20
2018-07-22T06:37:47.227Z,99683.13
2018-07-22T06:40:16.926Z,99683.52
2018-07-22T06:42:46.584Z,99685.17
2018-07-22T06:45:16.303Z,99686.15
2018-07-22T06:47:45.979Z,99684.41
2018-07-22T06:50:15.728Z,99693.64
2018-07-22T06:52:45.429Z,99687.89
2018-07-22T06:55:15.179Z,99688.50
2018-07-22T06:57:44.855Z,99686.02
2018-07-22T07:00:14.624Z,99693.34
2018-07-22T07:02:44.308Z,99693.34
2018-07-22T07:05:14.102Z,99693.02
2018-07-22T07:07:43.783Z,99688.71
2018-07-22T07:10:13.540Z,99693.17
2018-07-22T07:12:43.372Z,99691.15
2018-07-22T07:15:13.048Z,99694.69
2018-07-22T07:17:42.743Z,99694.59
2018-07-22T07:20:12.479Z,99692.97
2018-07-22T07:22:42.116Z,99698.61
2018-07-22T07:25:11.806Z,99690.78
2018-07-22T07:27:41.737Z,99692.44
2018-07-22T07:30:11.461Z,99690.05
2018-07-22T07:32:41.182Z,99685.41
2018-07-22T07:35:10.868Z,99687.20
2018-07-22T07:37:40.621Z,99693.05
2018-07-22T07:40:10.362Z,99689.41
2018-07-22T07:42:40.032Z,99694.06
2018-07-22T07:45:09.764Z,99696.87
2018-07-22T07:47:39.548Z,99686.35
2018-07-22T07:50:09.228Z,99683.39
2018-07-22T07:52:38.918Z,99679.58
2018-07-22T07:55:08.777Z,99684.08
2018-07-22T07:57:38.741Z,99686.81
2018-07-22T08:00:08.581Z,99683.49
2018-07-22T08:02:38.308Z,99687.25
2018-07-22T08:05:08.068Z,99685.56
2018-07-22T08:07:37.766Z,99681.79
2018-07-22T08:10:07.972Z,99681.84
2018-07-22T08:12:37.726Z,99684.23
2018-07-22T08:15:07.592Z,99682.23
2018-07-22T08:17:37.285Z,99677.66
2018-07-22T08:20:07.382Z,99682.91
2018-07-22T08:22:37.374Z,99673.58
2018-07-22T08:25:07.636Z,99678.25
2018-07-22T08:27:37.316Z,99680.25
2018-07-22T08:30:07.293Z,99682.98
2018-07-22T08:32:36.974Z,99679.98
2018-07-22T08:35:06.852Z,99681.37
2018-07-22T08:37:36.595Z,99687.13
2018-07-22T08:40:07.045Z,99687.70
2018-07-22T08:42:36.784Z,99676.50
2018-07-22T08:45:07.156Z,99680.63
2018-07-22T08:47:36.929Z,99683.63
2018-07-22T08:50:06.809Z,99678.95
2018-07-22T08:52:36.528Z,99681.42
2018-07-22T08:55:06.472Z,99677.58
2018-07-22T08:57:36.151Z,99679.77
2018-07-22T09:00:06.669Z,99686.62
2018-07-22T09:02:36.332Z,99684.97
2018-07-22T09:05:06.624Z,99683.58
2018-07-22T09:07:36.292Z,99686.54
2018-07-22T09:10:05.996Z,99681.58
2018-07-22T09:12:35.748Z,99683.77
2018-07-22T09:15:06.180Z,99685.69
2018-07-22T09:17:35.939Z,99691.70
2018-07-22T09:20:06.184Z,99689.41
2018-07-22T09:22:35.905Z,99689.95
2018-07-22T09:25:05.602Z,99693.41
2018-07-22T09:27:35.335Z,99699.68
2018-07-22T09:30:05.168Z,99703.80
2018-07-22T09:32:34.851Z,99699.31
2018-07-22T09:35:04.663Z,99706.77
2018-07-22T09:37:35.273Z,99697.05
2018-07-22T09:40:05.207Z,99699.30
2018-07-22T09:42:34.872Z,99703.16
2018-07-22T09:45:04.633Z,99713.17
2018-07-22T09:47:34.342Z,99711.52
2018-07-22T09:50:04.164Z,99704.66
2018-07-22T09:52:33.835Z,99708.11
2018-07-22T09:55:03.570Z,99712.73
2018-07-22T09:57:33.250Z,99704.41
2018-07-22T10:00:02.995Z,99703.27
2018-07-22T10:02:32.721Z,99701.23
2018-07-22T10:05:02.388Z,99701.41
2018-07-22T10:07:32.356Z,99703.48
2018-07-22T10:10:02.443Z,99701.90
2018-07-22T10:12:32.129Z,99701.51
2018-07-22T10:15:01.881Z,99696.92
2018-07-22T10:17:31.607Z,99694.89
2018-07-22T10:20:01.282Z,99701.46
2018-07-22T10:22:30.951Z,99693.56
2018-07-22T10:25:00.673Z,99691.28
2018-07-22T10:27:30.365Z,99695.87
2018-07-22T10:30:00.072Z,99700.00
2018-07-22T10:32:29.762Z,99696.37
2018-07-22T10:34:59.445Z,99698.63
2018-07-22T10:37:29.175Z,99698.02
2018-07-22T10:39:59.057Z,99690.29
2018-07-22T10:42:28.741Z,99683.39
2018-07-22T10:44:58.478Z,99684.75
2018-07-22T10:47:28.181Z,99682.08
2018-07-22T10:49:57.912Z,99681.19
2018-07-22T10:52:27.627Z,99675.48
2018-07-22T10:54:57.320Z,99669.30
2018-07-22T10:57:26.992Z,99667.34
2018-07-22T10:59:56.753Z,99668.42
2018-07-22T11:02:26.485Z,99666.53
2018-07-22T11:04:56.342Z,99672.64
2018-07-22T11:07:26.036Z,99667.81
2018-07-22T11:09:55.722Z,99667.12
2018-07-22T11:12:25.478Z,99669.84
2018-07-22T11:14:55.197Z,99675.25
2018-07-22T11:17:24.927Z,99675.55
2018-07-22T11:19:54.656Z,99682.59
2018-07-22T11:22:24.362Z,99687.77
2018-07-22T11:24:54.062Z,99683.70
2018-07-22T11:27:23.719Z,99674.64
2018-07-22T11:29:53.371Z,99674.39
2018-07-22T11:32:23.089Z,99672.70
2018-07-22T11:34:52.748Z,99676.64
2018-07-22T11:37:22.399Z,99675.42
2018-07-22T11:39:52.105Z,99682.67
2018-07-22T11:42:21.828Z,99684.05
2018-07-22T11:44:51.912Z,99680.78
2018-07-22T11:47:21.643Z,99682.16
2018-07-22T11:49:51.334Z,99678.30
2018-07-22T11:52:21.113Z,99679.64
2018-07-22T11:54:50.814Z,99676.06
2018-07-22T11:57:20.515Z,99676.54
2018-07-22T11:59:50.224Z,99668.45
2018-07-22T12:02:19.893Z,99662.09
2018-07-22T12:04:49.561Z,99665.81
2018-07-22T12:07:19.276Z,99671.14
2018-07-22T12:09:48.979Z,99667.58
2018-07-22T12:12:19.239Z,99663.53
2018-07-22T12:14:48.936Z,99667.55
2018-07-22T12:17:18.648Z,99667.84
2018-07-22T12:19:48.381Z,99660.23
2018-07-22T12:22:18.068Z,99669.45
2018-07-22T12:24:47.765Z,99664.80
2018-07-22T12:27:17.514Z,99674.56
2018-07-22T12:29:47.220Z,99677.00
2018-07-22T12:32:16.908Z,99680.95
2018-07-22T12:34:46.632Z,99693.09
2018-07-22T12:37:16.347Z,99704.01
2018-07-22T12:39:45.996Z,99711.34
2018-07-22T12:42:15.776Z,99708.62
2018-07-22T12:44:45.489Z,99712.90
2018-07-22T12:47:15.254Z,99703.31
2018-07-22T12:49:45.406Z,99710.70
2018-07-22T12:52:15.130Z,99710.13
2018-07-22T12:54:44.817Z,99705.41
2018-07-22T12:57:14.828Z,99711.56
2018-07-22T12:59:44.556Z,99708.96
2018-07-22T13:02:14.225Z,99717.05
2018-07-22T13:04:43.909Z,99712.81
2018-07-22T13:07:13.690Z,99726.69
2018-07-22T13:09:43.363Z,99724.31
2018-07-22T13:12:13.089Z,99724.55
2018-07-22T13:14:42.836Z,99729.93
2018-07-22T13:17:12.759Z,99729.59
2018-07-22T13:19:42.485Z,99723.81
2018-07-22T13:22:12.144Z,99729.05
2018-07-22T13:24:41.884Z,99730.05
2018-07-22T13:27:11.609Z,99730.48
2018-07-22T13:29:41.285Z,99735.55
2018-07-22T13:32:11.107Z,99734.59
2018-07-22T13:34:40.812Z,99726.58
2018-07-22T13:37:10.476Z,99721.89
2018-07-22T13:39:40.204Z,99728.73
2018-07-22T13:42:09.867Z,99723.55
2018-07-22T13:44:39.627Z,99727.17
2018-07-22T13:47:09.344Z,99721.56
2018-07-22T13:49:39.119Z,99724.91
2018-07-22T13:52:08.729Z,99732.95
2018-07-22T13:54:38.491Z,99739.31
2018-07-22T13:57:08.486Z,99742.53
2018-07-22T13:59:38.203Z,99743.28
2018-07-22T14:02:08.408Z,99746.35
2018-07-22T14:04:38.251Z,99751.44
2018-07-22T14:07:08.080Z,99755.50
2018-07-22T14:09:37.757Z,99759.41
2018-07-22T14:12:07.655Z,99754.80
2018-07-22T14:14:37.298Z,99761.74
2018-07-22T14:17:06.963Z,99762.64
2018-07-22T14:19:36.650Z,99761.38
2018-07-22T14:22:06.312Z,99761.39
2018-07-22T14:24:35.988Z,99765.00
2018-07-22T14:27:05.692Z,99775.39
2018-07-22T14:29:35.358Z,99770.44
2018-07-22T14:32:05.052Z,99770.65
2018-07-22T14:34:34.724Z,99772.14
2018-07-22T14:37:04.367Z,99771.70
2018-07-22T14:39:34.053Z,99769.59
2018-07-22T14:42:03.720Z,99764.09
2018-07-22T14:44:33.375Z,99765.65
2018-07-22T14:47:03.096Z,99758.40
2018-07-22T14:49:32.788Z,99755.48
2018-07-22T14:52:02.443Z,99763.13
2018-07-22T14:54:32.213Z,99755.86
2018-07-22T14:57:01.844Z,99764.53
2018-07-22T14:59:31.488Z,99768.59
2018-07-22T15:02:01.156Z,99759.98
2018-07-22T15:04:30.788Z,99766.34
2018-07-22T15:07:00.435Z,99765.58
2018-07-22T15:09:30.108Z,99776.47
2018-07-22T15:11:59.964Z,99770.56
2018-07-22T15:14:29.595Z,99769.16
2018-07-22T15:16:59.269Z,99768.20
2018-07-22T15:19:28.898Z,99769.53
2018-07-22T15:21:58.535Z,99758.25
2018-07-22T15:24:28.188Z,99763.63
2018-07-22T15:26:57.837Z,99757.59
2018-07-22T15:29:27.513Z,99760.43
2018-07-22T15:31:57.188Z,99754.56
2018-07-22T15:34:27.203Z,99755.84
2018-07-22T15:36:57.812Z,99760.69
2018-07-22T15:39:27.420Z,99761.95
2018-07-22T15:41:57.126Z,99756.83
2018-07-22T15:44:26.803Z,99765.33
2018-07-22T15:46:56.467Z,99750.92
2018-07-22T15:49:26.136Z,99756.13
2018-07-22T15:51:55.751Z,99766.05
2018-07-22T15:54:25.394Z,99763.52
2018-07-22T15:56:55.076Z,99762.16
2018-07-22T15:59:24.704Z,99765.75
2018-07-22T16:01:54.340Z,99759.41
2018-07-22T16:04:24.235Z,99757.52
2018-07-22T16:06:53.881Z,99760.64
2018-07-22T16:09:23.526Z,99764.07
2018-07-22T16:11:53.176Z,99761.73
2018-07-22T16:14:22.832Z,99763.25
2018-07-22T16:16:52.496Z,99763.08
2018-07-22T16:19:22.155Z,99758.55
2018-07-22T16:21:51.776Z,99754.78
2018-07-22T16:24:21.395Z,99751.60
2018-07-22T16:26:51.067Z,99751.92
2018-07-22T16:29:20.723Z,99752.52
2018-07-22T16:31:50.444Z,99748.47
2018-07-22T16:34:20.075Z,99747.91
2018-07-22T16:36:49.762Z,99751.48
2018-07-22T16:39:19.495Z,99753.82
2018-07-22T16:41:49.199Z,99753.20
2018-07-22T16:44:18.863Z,99754.27
2018-07-22T16:46:48.564Z,99750.63
2018-07-22T16:49:18.222Z,99749.26
2018-07-22T16:51:47.877Z,99749.09
2018-07-22T16:54:17.551Z,99746.33
2018-07-22T16:56:47.227Z,99747.05
2018-07-22T16:59:16.872Z,99744.95
2018-07-22T17:01:46.616Z,99746.09
2018-07-22T17:04:16.248Z,99749.32
2018-07-22T17:06:45.885Z,99747.16
2018-07-22T17:09:15.599Z,99743.35
2018-07-22T17:11:45.212Z,99743.35
2018-07-22T17:14:15.084Z,99746.98
2018-07-22T17:16:44.935Z,99742.58
2018-07-22T17:19:14.893Z,99749.91
2018-07-22T17:21:44.786Z,99749.70
2018-07-22T17:24:14.648Z,99756.53
2018-07-22T17:26:44.652Z,99757.61
2018-07-22T17:29:14.284Z,99754.17
2018-07-22T17:31:44.060Z,99758.28
2018-07-22T17:34:13.683Z,99757.68
2018-07-22T17:36:43.301Z,99763.17
2018-07-22T17:39:13.004Z,99760.16
2018-07-22T17:41:42.656Z,99753.60
2018-07-22T17:44:12.407Z,99753.47
2018-07-22T17:46:42.107Z,99757.70
2018-07-22T17:49:11.939Z,99750.42
2018-07-22T17:51:41.751Z,99756.89
2018-07-22T17:54:11.444Z,99757.68
2018-07-22T17:56:41.159Z,99753.77
2018-07-22T17:59:10.837Z,99756.65
2018-07-22T18:01:40.670Z,99767.36
2018-07-22T18:04:10.355Z,99763.55
2018-07-22T18:06:39.993Z,99767.09
2018-07-22T18:09:10.048Z,99769.55
2018-07-22T18:11:39.946Z,99773.56
2018-07-22T18:14:09.644Z,99769.72
2018-07-22T18:16:39.339Z,99783.39
2018-07-22T18:19:08.992Z,99783.62
2018-07-22T18:21:38.751Z,99787.41
2018-07-22T18:24:08.495Z,99788.74
2018-07-22T18:26:38.244Z,99794.59
2018-07-22T18:29:07.993Z,99795.18
2018-07-22T18:31:37.903Z,99799.02
2018-07-22T18:34:07.651Z,99796.58
2018-07-22T18:36:37.395Z,99792.74
2018-07-22T18:39:09.201Z,99801.58
2018-07-22T18:41:39.012Z,99799.03
2018-07-22T18:44:08.683Z,99792.86
2018-07-22T18:46:38.465Z,99797.59
2018-07-22T18:49:08.170Z,99799.83
2018-07-22T18:51:37.891Z,99805.02
2018-07-22T18:54:07.812Z,99807.58
2018-07-22T18:56:37.533Z,99811.59
2018-07-22T18:59:07.320Z,99805.41
2018-07-22T19:01:37.024Z,99817.44
2018-07-22T19:04:06.787Z,99811.37
2018-07-22T19:06:36.554Z,99812.15
2018-07-22T19:09:08.560Z,99806.77
2018-07-22T19:11:38.275Z,99809.72
2018-07-22T19:14:08.000Z,99813.13
2018-07-22T19:16:37.673Z,99816.28
2018-07-22T19:19:07.494Z,99814.06
2018-07-22T19:21:37.187Z,99819.10
2018-07-22T19:24:06.904Z,99822.17
2018-07-22T19:26:36.705Z,99829.16
2018-07-22T19:29:06.434Z,99834.61
2018-07-22T19:31:36.199Z,99841.50
2018-07-22T19:34:06.271Z,99851.45
2018-07-22T19:36:35.937Z,99853.21
2018-07-22T19:39:07.436Z,99859.98
2018-07-22T19:41:37.427Z,99864.09
2018-07-22T19:44:07.722Z,99862.05
2018-07-22T19:46:37.412Z,99868.91
2018-07-22T19:49:07.203Z,99866.63
2018-07-22T19:51:36.900Z,99877.66
2018-07-22T19:54:06.670Z,99882.67
2018-07-22T19:56:36.967Z,99885.42
2018-07-22T19:59:06.759Z,99880.25
2018-07-22T20:01:40.287Z,99883.55
2018-07-22T20:04:11.707Z,99889.17
2018-07-22T20:06:42.139Z,99889.72
2018-07-22T20:09:12.962Z,99892.45
2018-07-22T20:11:43.320Z,99889.60
2018-07-22T20:14:12.981Z,99893.38
2018-07-22T20:16:42.604Z,99894.05
2018-07-22T20:19:12.305Z,99886.76
2018-07-22T20:21:42.009Z,99901.03
2018-07-22T20:24:11.778Z,99898.56
2018-07-22T20:26:41.424Z,99901.03
2018-07-22T20:29:11.097Z,99901.84
2018-07-22T20:31:40.853Z,99911.20
2018-07-22T20:34:10.572Z,99904.03
2018-07-22T20:36:40.260Z,99905.39
2018-07-22T20:39:11.492Z,99909.39
2018-07-22T20:41:41.981Z,99910.37
2018-07-22T20:44:11.675Z,99917.11
2018-07-22T20:46:42.788Z,99920.94
2018-07-22T20:49:12.546Z,99922.66
2018-07-22T20:51:42.480Z,99922.30
2018-07-22T20:54:12.170Z,99926.14
2018-07-22T20:56:41.847Z,99923.83
2018-07-22T20:59:11.496Z,99932.00
2018-07-22T21:01:41.216Z,99927.34
2018-07-22T21:04:10.892Z,99935.02
2018-07-22T21:06:40.529Z,99938.39
2018-07-22T21:09:10.602Z,99929.17
2018-07-22T21:11:51.270Z,99939.98
2018-07-22T21:14:21.019Z,99941.67
2018-07-22T21:16:50.699Z,99941.56
2018-07-22T21:19:20.360Z,99939.91
2018-07-22T21:21:50.281Z,99944.73
2018-07-22T21:24:19.971Z,99942.48
2018-07-22T21:26:49.663Z,99948.50
2018-07-22T21:29:19.352Z,99952.11
2018-07-22T21:31:49.024Z,99955.04
2018-07-22T21:34:18.704Z,99958.18
2018-07-22T21:36:48.401Z,99962.63
2018-07-22T21:39:18.069Z,99965.05
2018-07-22T21:41:47.842Z,99967.05
2018-07-22T21:44:17.541Z,99978.05
2018-07-22T21:46:47.228Z,99973.35
2018-07-22T21:49:16.927Z,99972.64
2018-07-22T21:51:46.659Z,99974.27
2018-07-22T21:54:16.324Z,99979.63
2018-07-22T21:56:45.968Z,99979.44
2018-07-22T21:59:15.671Z,99977.07
2018-07-22T22:01:45.340Z,99983.16
2018-07-22T22:04:15.004Z,99986.27
2018-07-22T22:06:44.720Z,99988.91
2018-07-22T22:09:14.381Z,99979.83
2018-07-22T22:11:44.040Z,99983.38
2018-07-22T22:14:13.732Z,99987.02
2018-07-22T22:16:43.405Z,99986.14
2018-07-22T22:19:13.117Z,99981.45
2018-07-22T22:21:42.784Z,99986.34
2018-07-22T22:24:12.479Z,99990.64
2018-07-22T22:26:42.216Z,99989.05
2018-07-22T22:29:12.244Z,99987.25
2018-07-22T22:31:41.911Z,99982.27
2018-07-22T22:34:11.608Z,99989.53
2018-07-22T22:36:41.307Z,99993.95
2018-07-22T22:39:13.395Z,99992.96
2018-07-22T22:41:43.972Z,99984.08
2018-07-22T22:44:13.667Z,99997.16
2018-07-22T22:46:43.341Z,99994.84
2018-07-22T22:49:13.027Z,99992.34
2018-07-22T22:51:42.774Z,99995.27
2018-07-22T22:54:12.452Z,99992.45
2018-07-22T22:56:42.159Z,99987.38
2018-07-22T22:59:23.942Z,99995.48
2018-07-22T23:01:53.708Z,99986.39
2018-07-22T23:04:23.358Z,99994.22
2018-07-22T23:06:53.008Z,99990.99
2018-07-22T23:09:22.708Z,99992.17
2018-07-22T23:11:52.351Z,99987.92
2018-07-22T23:14:21.983Z,99989.23
2018-07-22T23:16:51.778Z,99988.41
2018-07-22T23:19:21.421Z,99988.01
2018-07-22T23:21:51.144Z,99982.05
2018-07-22T23:24:20.815Z,99973.81
2018-07-22T23:26:50.471Z,99983.17
2018-07-22T23:29:20.172Z,99977.69
2018-07-22T23:31:49.865Z,99979.33
2018-07-22T23:34:19.543Z,99974.99
2018-07-22T23:36:49.229Z,99975.36
2018-07-22T23:39:18.905Z,99984.50
2018-07-22T23:41:48.600Z,99983.37
2018-07-22T23:44:18.314Z,99983.05
2018-07-22T23:46:47.960Z,99984.03
2018-07-22T23:49:17.657Z,99982.19
2018-07-22T23:51:47.428Z,99986.55
2018-07-22T23:54:17.070Z,99986.20
2018-07-22T23:56:46.734Z,99981.09
2018-07-22T23:59:16.411Z,99985.54
